Flight Track Log - Related Links

Times and Time Zones

All times are in EDT time to prevent confusion due to time zone crossing. See the N402BD flight status page for this flight to view local times or setup timezone preferences in your user account.

Time Position Orientation Groundspeed Altitude Reporting Facility
EDT Latitude Longitude Course Direction KTS MPH feet Rate Location/Type
Tue 05:30:08 PM 38.2667 -104.4833 180° South 95 109 5,900  Level Denver TRACON
Tue 05:31:14 PM 38.2333 -104.4833 205° Southwest 99 114 6,400 463 Climbing Denver TRACON
Tue 05:34:14 PM 38.1500 -104.5333 191° South 117 135 7,800 409 Climbing Denver TRACON
Tue 05:34:54 PM 38.1283 -104.5389 198° South 125 144 7,900 300 Climbing Denver Center
Tue 05:35:54 PM 38.0931 -104.5531 194° South 133 153 8,300 250 Climbing Denver Center
Tue 05:36:54 PM 38.0558 -104.5644 191° South 133 153 8,400 100 Climbing Denver Center
Tue 05:37:54 PM 38.0206 -104.5733 196° South 146 168 8,500 200 Climbing Denver Center
Tue 05:38:54 PM 37.9811 -104.5875 191° South 146 168 8,800 500 Climbing Denver Center
Tue 05:39:54 PM 37.9458 -104.5964 196° South 134 154 9,500 650 Climbing Denver Center
Tue 05:40:54 PM 37.9147 -104.6078 193° South 124 143 10,100 400 Climbing Denver Center
Tue 05:41:54 PM 37.8858 -104.6164 193° South 124 143 10,300 150 Climbing Denver Center
Tue 05:42:54 PM 37.8483 -104.6278 194° South 124 143 10,400 50 Climbing Denver Center
Tue 05:43:54 PM 37.8131 -104.6392 188° South 130 150 10,400 350 Level Denver Center
Tue 05:44:54 PM 37.7758 -104.6456 190° South 130 150 11,100 700 Climbing Denver Center
Tue 05:45:54 PM 37.7508 -104.6514 195° South 117 135 11,800 600 Climbing Denver Center
Tue 05:46:54 PM 37.7175 -104.6628 198° South 117 135 12,300 300 Climbing Denver Center
Tue 05:47:54 PM 37.6844 -104.6767 190° South 122 140 12,400 100 Climbing Denver Center
Tue 05:48:54 PM 37.6450 -104.6856 194° South 136 157 12,500  Climbing Denver Center
Tue 05:49:54 PM 37.6078 -104.6969 186° South 151 174 12,400  Descending Denver Center
Tue 05:50:54 PM 37.5597 -104.7033 191° South 156 180 12,500 50 Climbing Denver Center
Tue 05:51:54 PM 37.5244 -104.7119 185° South 156 180 12,500 -50 Level Denver Center
Tue 05:52:54 PM 37.4914 -104.7156 187° South 140 161 12,400 -50 Descending Denver Center
Tue 05:53:54 PM 37.4558 -104.7214 187° South 135 155 12,400 50 Level Denver Center
Tue 05:54:54 PM 37.4122 -104.7278 192° South 140 161 12,500  Climbing Denver Center
Tue 05:55:54 PM 37.3686 -104.7392 185° South 145 167 12,400 -100 Descending Denver Center
Tue 05:56:54 PM 37.3353 -104.7428 184° South 145 167 12,300  Descending Denver Center
Tue 05:57:54 PM 37.2936 -104.7464 190° South 140 161 12,400 50 Climbing Denver Center
Tue 05:58:54 PM 37.2542 -104.7550 194° South 140 161 12,400  Level Denver Center
Tue 05:59:54 PM 37.2169 -104.7664 195° South 140 161 12,400  Level Denver Center
Tue 06:00:54 PM 37.1836 -104.7775 190° South 140 161 12,400 -50 Level Denver Center
Tue 06:01:54 PM 37.1442 -104.7864 188° South 140 161 12,300  Descending Denver Center
Tue 06:02:54 PM 37.1089 -104.7922 187° South 140 161 12,400 100 Climbing Denver Center
Tue 06:03:54 PM 37.0694 -104.7983 192° South 140 161 12,500 200 Climbing Denver Center
Tue 06:04:54 PM 37.0361 -104.8069 187° South 145 167 12,800 443 Climbing Denver Center
Tue 06:07:17 PM 36.9472 -104.8197 188° South 144 166 14,000 443 Climbing Albuquerque Center
Tue 06:08:17 PM 36.9097 -104.8261 192° South 138 159 14,300 250 Climbing Albuquerque Center
Tue 06:09:17 PM 36.8767 -104.8350 193° South 128 147 14,500 50 Climbing Albuquerque Center
Tue 06:10:17 PM 36.8372 -104.8467 191° South 128 147 14,400  Descending Albuquerque Center
Tue 06:11:17 PM 36.7978 -104.8558 188° South 145 167 14,500 50 Climbing Albuquerque Center
Tue 06:12:18 PM 36.7644 -104.8619 193° South 138 159 14,500 50 Level Albuquerque Center
Tue 06:13:17 PM 36.7250 -104.8736 196° South 145 167 14,600  Climbing Albuquerque Center
Tue 06:14:17 PM 36.6775 -104.8906 191° South 158 182 14,500 -50 Descending Albuquerque Center
Tue 06:15:17 PM 36.6400 -104.8997 208° Southwest 156 180 14,500 50 Level Albuquerque Center
Tue 06:16:17 PM 36.6031 -104.9242 199° South 149 171 14,600 -50 Climbing Albuquerque Center
Tue 06:17:17 PM 36.5636 -104.9408 192° South 157 181 14,400 -100 Descending Albuquerque Center
Tue 06:18:17 PM 36.5306 -104.9494 200° South 152 175 14,400 -50 Level Albuquerque Center
Tue 06:19:17 PM 36.4933 -104.9661 182° South 146 168 14,300 -50 Descending Albuquerque Center
Tue 06:20:17 PM 36.4558 -104.9675 150° Southeast 146 168 14,300 50 Level Albuquerque Center
Tue 06:21:17 PM 36.4239 -104.9450 156° South 135 155 14,400 200 Climbing Albuquerque Center
Tue 06:22:17 PM 36.3881 -104.9256 160° South 135 155 14,700 150 Climbing Albuquerque Center
Tue 06:23:17 PM 36.3503 -104.9086 164° South 141 162 14,700 -50 Level Albuquerque Center
Tue 06:24:17 PM 36.3103 -104.8944 167° South 146 168 14,600  Descending Albuquerque Center
Tue 06:25:17 PM 36.2683 -104.8828 187° South 146 168 14,700 100 Climbing Albuquerque Center
Tue 06:26:17 PM 36.2247 -104.8894 181° South 146 168 14,800 50 Climbing Albuquerque Center
Tue 06:27:17 PM 36.1850 -104.8906 203° Southwest 146 168 14,800  Level Albuquerque Center
Tue 06:28:17 PM 36.1478 -104.9097 203° Southwest 146 168 14,800 50 Level Albuquerque Center
Tue 06:29:17 PM 36.1108 -104.9292 198° South 146 168 14,900  Climbing Albuquerque Center
Tue 06:30:17 PM 36.0756 -104.9431 196° South 146 168 14,800 -100 Descending Albuquerque Center
Tue 06:31:17 PM 36.0361 -104.9569 197° South 146 168 14,700  Descending Albuquerque Center
Tue 06:32:17 PM 35.9989 -104.9708 202° Southwest 146 168 14,800  Climbing Albuquerque Center
Tue 06:33:17 PM 35.9597 -104.9900 197° South 151 174 14,700 -50 Descending Albuquerque Center
Tue 06:34:17 PM 35.9222 -105.0042 206° Southwest 145 167 14,700 -100 Level Albuquerque Center
Tue 06:35:17 PM 35.8872 -105.0256 203° Southwest 145 167 14,500 50 Descending Albuquerque Center
Tue 06:36:17 PM 35.8564 -105.0419 205° Southwest 145 167 14,800 50 Climbing Albuquerque Center
Tue 06:37:17 PM 35.8192 -105.0633 198° South 145 167 14,600 -100 Descending Albuquerque Center
Tue 06:38:17 PM 35.7839 -105.0772 193° South 140 161 14,600 -50 Level Albuquerque Center
Tue 06:39:17 PM 35.7444 -105.0886 191° South 146 168 14,500  Descending Albuquerque Center
Tue 06:40:17 PM 35.7072 -105.0975 193° South 146 168 14,600 -50 Climbing Albuquerque Center
Tue 06:41:17 PM 35.6656 -105.1089 190° South 146 168 14,400 -300 Descending Albuquerque Center
Tue 06:42:17 PM 35.6261 -105.1175 195° South 146 168 14,000 -300 Descending Albuquerque Center
Tue 06:43:17 PM 35.5847 -105.1314 195° South 146 168 13,800 -350 Descending Albuquerque Center
Tue 06:44:17 PM 35.5431 -105.1453 200° South 146 168 13,300 -450 Descending Albuquerque Center
Tue 06:45:17 PM 35.5058 -105.1617 206° Southwest 146 168 12,900 -400 Descending Albuquerque Center
Tue 06:46:17 PM 35.4708 -105.1831 206° Southwest 146 168 12,500 -200 Descending Albuquerque Center
Tue 06:47:17 PM 35.4439 -105.1992 213° Southwest 128 147 12,500 250 Level Albuquerque Center
Tue 06:48:17 PM 35.4172 -105.2203 214° Southwest 123 142 13,000 300 Climbing Albuquerque Center
Tue 06:49:17 PM 35.3883 -105.2439 197° South 116 133 13,100 200 Climbing Albuquerque Center
Tue 06:50:17 PM 35.3594 -105.2550 195° South 121 139 13,400 150 Climbing Albuquerque Center
Tue 06:51:17 PM 35.3264 -105.2658 201° Southwest 121 139 13,400 50 Level Albuquerque Center
Tue 06:52:17 PM 35.2911 -105.2822 181° South 128 147 13,500 150 Climbing Albuquerque Center
Tue 06:53:17 PM 35.2578 -105.2831 178° South 128 147 13,700 -100 Climbing Albuquerque Center
Tue 06:54:17 PM 35.2181 -105.2814 195° South 133 153 13,300 -300 Descending Albuquerque Center
Tue 06:55:17 PM 35.1847 -105.2925 203° Southwest 133 153 13,100 -100 Descending Albuquerque Center
Tue 06:56:17 PM 35.1539 -105.3086 226° Southwest 132 152 13,100 100 Level Albuquerque Center
Tue 06:57:17 PM 35.1292 -105.3397 204° Southwest 127 146 13,300 -50 Climbing Albuquerque Center
Tue 06:58:17 PM 35.0961 -105.3581 219° Southwest 134 154 13,000 -250 Descending Albuquerque Center
Tue 06:59:17 PM 35.0694 -105.3842 263° West 128 147 12,800 -300 Descending Albuquerque Center
Tue 07:00:17 PM 35.0658 -105.4225 259° West 109 125 12,400 -400 Descending Albuquerque Center
Tue 07:01:17 PM 35.0603 -105.4581 183° South 109 125 12,000 -400 Descending Albuquerque Center
Tue 07:09:15 PM 34.7538 -105.4782 192° South  Level FlightAware Approximate
Tue 07:10:15 PM 34.7156 -105.4885 192° South  Level FlightAware Approximate
Tue 07:11:15 PM 34.6774 -105.4988 192° South  Level FlightAware Approximate
Tue 07:12:15 PM 34.6392 -105.5091 192° South  Level FlightAware Approximate
Tue 07:13:15 PM 34.6009 -105.5193 192° South  Level FlightAware Approximate
Tue 07:14:15 PM 34.5627 -105.5296 192° South  Level FlightAware Approximate
Tue 07:15:15 PM 34.5245 -105.5398 192° South  Level FlightAware Approximate
Tue 07:16:15 PM 34.4863 -105.5500 187° South  Level FlightAware Approximate
Tue 07:17:15 PM 34.4477 -105.5555 193° South  Level FlightAware Approximate
Tue 07:18:15 PM 34.4095 -105.5658 193° South  Level FlightAware Approximate
Tue 07:19:15 PM 34.3713 -105.5761 193° South  Level FlightAware Approximate
Tue 07:20:15 PM 34.3330 -105.5864 193° South  Level FlightAware Approximate
Tue 07:21:15 PM 34.2948 -105.5967 193° South  Level FlightAware Approximate
Tue 07:22:15 PM 34.2566 -105.6069 193° South  Level FlightAware Approximate
Tue 07:23:15 PM 34.2184 -105.6172 193° South  Level FlightAware Approximate
Tue 07:24:15 PM 34.1802 -105.6275 193° South  Level FlightAware Approximate
Tue 07:25:15 PM 34.1420 -105.6377 199° South  Level FlightAware Approximate
Tue 07:26:15 PM 34.1051 -105.6528 192° South  Level FlightAware Approximate
Tue 07:27:15 PM 34.0668 -105.6629 192° South  Level FlightAware Approximate
Tue 07:28:15 PM 34.0286 -105.6730 192° South  Level FlightAware Approximate
Tue 07:29:15 PM 33.9903 -105.6831 192° South  Level FlightAware Approximate
Tue 07:30:15 PM 33.9521 -105.6931 192° South  Level FlightAware Approximate
Tue 07:31:15 PM 33.9139 -105.7032 192° South  Level FlightAware Approximate
Tue 07:32:15 PM 33.8756 -105.7132 192° South  Level FlightAware Approximate
Tue 07:33:15 PM 33.8374 -105.7232 192° South  Level FlightAware Approximate
Tue 07:34:15 PM 33.7991 -105.7333 192° South  Level FlightAware Approximate
Tue 07:35:15 PM 33.7609 -105.7433 192° South  Level FlightAware Approximate
Tue 07:36:15 PM 33.7226 -105.7533 192° South  Level FlightAware Approximate
Tue 07:37:15 PM 33.6844 -105.7633 192° South  Level FlightAware Approximate
Tue 07:38:15 PM 33.6461 -105.7732 183° South  Level FlightAware Approximate
Tue 07:39:15 PM 33.6093 -105.7757 193° South  Level FlightAware Approximate
Tue 07:40:15 PM 33.5711 -105.7860 193° South  Level FlightAware Approximate
Tue 07:41:15 PM 33.5329 -105.7963 206° Southwest  Level FlightAware Approximate
Tue 07:42:15 PM 33.4979 -105.8170 192° South  Level FlightAware Approximate
Tue 07:43:15 PM 33.4596 -105.8266 192° South  Level FlightAware Approximate
Tue 07:44:15 PM 33.4213 -105.8363 177° South  Level FlightAware Approximate
Tue 07:45:15 PM 33.3825 -105.8342 201° Southwest  Level FlightAware Approximate
Tue 07:46:15 PM 33.3481 -105.8500 190° South  Level FlightAware Approximate
Tue 07:47:15 PM 33.3099 -105.8578 192° South  Level FlightAware Approximate
Tue 07:48:15 PM 33.2717 -105.8679 192° South  Level FlightAware Approximate
Tue 07:49:15 PM 33.2335 -105.8781 192° South  Level FlightAware Approximate
Tue 07:50:15 PM 33.1952 -105.8882 202° Southwest  Level FlightAware Approximate
Tue 07:51:15 PM 33.1601 -105.9052 191° South  Level FlightAware Approximate
Tue 07:52:15 PM 33.1217 -105.9144 191° South  Level FlightAware Approximate
Tue 07:53:15 PM 33.0834 -105.9236 191° South  Level FlightAware Approximate
Tue 07:54:15 PM 33.0450 -105.9328 191° South  Level FlightAware Approximate
Tue 07:55:15 PM 33.0066 -105.9420 191° South  Level FlightAware Approximate
Tue 07:56:15 PM 32.9682 -105.9511 191° South  Level FlightAware Approximate
Tue 07:57:15 PM 32.9298 -105.9603 191° South  Level FlightAware Approximate
Tue 07:58:15 PM 32.8915 -105.9695 195° South  Level FlightAware Approximate
Tue 07:59:15 PM 32.8550 -105.9808 186° South  Level FlightAware Approximate
Tue 08:00:15 PM 32.8333 -105.9833 317° Northwest  Level FlightAware Approximate
Tue 08:01:15 PM 32.8621 -106.0149 137° Southeast  Level Estimated
Tue 08:02:15 PM 32.8333 -105.9833 317° Northwest  Level FlightAware Approximate
Tue 08:03:15 PM 32.8621 -106.0149 137° Southeast  Level Estimated
Tue 08:04:15 PM 32.8333 -105.9833 317° Northwest  Level FlightAware Approximate
Tue 08:05:15 PM 32.8621 -106.0149 137° Southeast  Level Estimated
Tue 08:06:15 PM 32.8333 -105.9833 317° Northwest  Level FlightAware Approximate
Tue 08:07:15 PM 32.8621 -106.0149 137° Southeast  Level Estimated
Tue 08:08:15 PM 32.8333 -105.9833 317° Northwest  Level FlightAware Approximate
Tue 08:09:15 PM 32.8621 -106.0149 317° Northwest  Level Estimated

Login

Don't have an account? Register now (free) for customized features, flight alerts, and more!